createdAt,value
2018-10-18T00:01:19.312Z,16.25
2018-10-18T00:03:48.711Z,15.32
2018-10-18T00:06:17.577Z,16.50
2018-10-18T00:08:46.173Z,15.83
2018-10-18T00:11:14.910Z,16.60
2018-10-18T00:13:43.677Z,15.48
2018-10-18T00:16:12.389Z,14.73
2018-10-18T00:18:41.171Z,15.50
2018-10-18T00:21:09.841Z,15.32
2018-10-18T00:23:38.558Z,15.43
2018-10-18T00:26:07.384Z,17.00
2018-10-18T00:28:36.146Z,15.85
2018-10-18T00:31:04.886Z,17.45
2018-10-18T00:33:33.615Z,17.32
2018-10-18T00:36:02.375Z,16.87
2018-10-18T00:38:31.221Z,16.12
2018-10-18T00:41:00.017Z,17.82
2018-10-18T00:43:28.757Z,16.60
2018-10-18T00:45:57.545Z,15.98
2018-10-18T00:48:26.254Z,15.40
2018-10-18T00:50:54.978Z,17.30
2018-10-18T00:53:23.745Z,15.68
2018-10-18T00:55:52.506Z,16.05
2018-10-18T00:58:21.280Z,15.30
2018-10-18T01:00:50.026Z,16.90
2018-10-18T01:03:18.745Z,17.02
2018-10-18T01:05:47.525Z,18.45
2018-10-18T01:08:16.324Z,17.45
2018-10-18T01:10:45.093Z,15.63
2018-10-18T01:13:13.913Z,15.83
2018-10-18T01:15:47.359Z,16.00
2018-10-18T01:18:19.863Z,18.45
2018-10-18T01:20:52.173Z,18.42
2018-10-18T01:23:24.285Z,17.23
2018-10-18T01:25:56.479Z,17.05
2018-10-18T01:28:30.960Z,15.58
2018-10-18T01:31:04.157Z,16.15
2018-10-18T01:33:38.553Z,17.25
2018-10-18T01:36:11.820Z,16.55
2018-10-18T01:38:46.225Z,17.27
2018-10-18T01:41:23.586Z,17.85
2018-10-18T01:43:57.858Z,16.57
2018-10-18T01:46:30.908Z,15.93
2018-10-18T01:49:04.937Z,19.62
2018-10-18T01:51:39.237Z,18.95
2018-10-18T01:54:14.553Z,19.00
2018-10-18T01:56:47.860Z,19.05
2018-10-18T01:59:23.498Z,19.80
2018-10-18T02:01:57.739Z,17.77
2018-10-18T02:04:32.047Z,18.45
2018-10-18T02:07:05.514Z,17.65
2018-10-18T02:09:40.187Z,17.95
2018-10-18T02:12:14.383Z,17.80
2018-10-18T02:14:47.277Z,18.00
2018-10-18T02:17:20.787Z,18.27
2018-10-18T02:19:54.324Z,19.07
2018-10-18T02:22:28.058Z,17.50
2018-10-18T02:25:00.641Z,16.77
2018-10-18T02:27:34.613Z,18.35
2018-10-18T02:30:06.698Z,17.90
2018-10-18T02:32:41.544Z,16.80
2018-10-18T02:35:14.958Z,18.20
2018-10-18T02:37:48.881Z,18.15
2018-10-18T02:40:23.830Z,17.25
2018-10-18T02:42:58.820Z,17.90
2018-10-18T02:45:32.633Z,17.07
2018-10-18T02:48:07.599Z,18.77
2018-10-18T02:50:43.910Z,20.20
2018-10-18T02:53:16.831Z,19.25
2018-10-18T02:55:50.931Z,20.90
2018-10-18T02:58:26.331Z,19.42
2018-10-18T03:01:01.109Z,20.12
2018-10-18T03:03:35.171Z,19.73
2018-10-18T03:06:10.515Z,19.98
2018-10-18T03:08:45.710Z,18.00
2018-10-18T03:11:21.580Z,19.85
2018-10-18T03:13:56.019Z,17.37
2018-10-18T03:16:29.357Z,20.17
2018-10-18T03:19:14.519Z,18.17
2018-10-18T03:21:48.280Z,18.57
2018-10-18T03:24:21.237Z,19.65
2018-10-18T03:26:54.006Z,17.95
2018-10-18T03:29:27.126Z,19.15
2018-10-18T03:32:01.254Z,17.82
2018-10-18T03:34:34.412Z,19.40
2018-10-18T03:37:08.339Z,19.70
2018-10-18T03:39:46.214Z,17.40
2018-10-18T03:42:20.121Z,18.92
2018-10-18T03:44:54.455Z,17.95
2018-10-18T03:47:29.420Z,19.27
2018-10-18T03:50:02.778Z,20.57
2018-10-18T03:52:40.544Z,19.57
2018-10-18T03:55:21.571Z,19.87
2018-10-18T03:57:54.768Z,20.08
2018-10-18T04:00:28.709Z,19.35
2018-10-18T04:03:02.625Z,20.88
2018-10-18T04:05:37.152Z,20.50
2018-10-18T04:08:11.203Z,21.90
2018-10-18T04:10:44.472Z,20.35
2018-10-18T04:13:17.920Z,19.70
2018-10-18T04:15:53.678Z,23.25
2018-10-18T04:18:28.929Z,21.15
2018-10-18T04:21:04.152Z,19.52
2018-10-18T04:23:38.863Z,20.45
2018-10-18T04:26:14.308Z,22.22
2018-10-18T04:28:47.452Z,18.92
2018-10-18T04:31:26.073Z,19.32
2018-10-18T04:33:59.168Z,18.73
2018-10-18T04:36:43.325Z,19.55
2018-10-18T04:39:16.456Z,20.00
2018-10-18T04:41:50.572Z,19.32
2018-10-18T04:44:30.307Z,20.35
2018-10-18T04:47:05.447Z,21.80
2018-10-18T04:49:44.384Z,18.90
2018-10-18T04:52:21.857Z,20.08
2018-10-18T04:54:58.230Z,20.60
2018-10-18T04:57:31.387Z,19.30
2018-10-18T05:00:14.929Z,20.37
2018-10-18T05:02:50.683Z,22.37
2018-10-18T05:05:34.863Z,20.90
2018-10-18T05:08:10.000Z,21.17
2018-10-18T05:10:43.951Z,21.27
2018-10-18T05:13:17.576Z,20.75
2018-10-18T05:15:52.921Z,22.22
2018-10-18T05:18:26.553Z,22.45
2018-10-18T05:20:59.471Z,22.27
2018-10-18T05:23:32.853Z,20.65
2018-10-18T05:26:11.679Z,21.90
2018-10-18T05:28:44.997Z,22.20
2018-10-18T05:31:28.839Z,20.25
2018-10-18T05:34:03.343Z,23.27
2018-10-18T05:36:38.959Z,21.70
2018-10-18T05:39:13.997Z,22.35
2018-10-18T05:41:48.812Z,20.65
2018-10-18T05:44:22.549Z,22.55
2018-10-18T05:46:53.806Z,21.17
2018-10-18T05:49:25.863Z,22.60
2018-10-18T05:51:57.084Z,21.57
2018-10-18T05:54:28.814Z,22.67
2018-10-18T05:57:01.261Z,22.48
2018-10-18T05:59:34.389Z,24.10
2018-10-18T06:02:08.399Z,24.15
2018-10-18T06:04:49.092Z,24.72
2018-10-18T06:07:22.451Z,21.68
2018-10-18T06:09:57.514Z,22.02
2018-10-18T06:12:34.305Z,21.50
2018-10-18T06:15:07.790Z,22.73
2018-10-18T06:17:44.446Z,21.90
2018-10-18T06:20:16.967Z,22.00
2018-10-18T06:22:49.372Z,23.90
2018-10-18T06:25:22.667Z,21.95
2018-10-18T06:27:59.196Z,25.17
2018-10-18T06:30:33.169Z,23.50
2018-10-18T06:33:04.463Z,25.50
2018-10-18T06:35:35.607Z,25.05
2018-10-18T06:38:10.885Z,25.90
2018-10-18T06:40:42.710Z,26.20
2018-10-18T06:43:14.114Z,25.05
2018-10-18T06:45:46.779Z,24.50
2018-10-18T06:48:17.743Z,27.50
2018-10-18T06:50:48.302Z,26.27
2018-10-18T06:53:18.919Z,29.20
2018-10-18T06:55:51.442Z,29.12
2018-10-18T06:58:25.787Z,28.80
2018-10-18T07:00:56.502Z,27.02
2018-10-18T07:03:29.014Z,28.40
2018-10-18T07:06:02.015Z,29.37
2018-10-18T07:08:35.776Z,29.25
2018-10-18T07:11:16.408Z,29.50
2018-10-18T07:13:50.838Z,30.00
2018-10-18T07:16:22.365Z,28.55
2018-10-18T07:18:54.768Z,27.07
2018-10-18T07:21:27.226Z,26.73
2018-10-18T07:23:58.808Z,24.87
2018-10-18T07:26:29.419Z,28.57
2018-10-18T07:29:01.427Z,27.77
2018-10-18T07:31:31.704Z,35.20
2018-10-18T07:34:03.461Z,35.40
2018-10-18T07:36:34.106Z,30.12
2018-10-18T07:39:05.278Z,30.05
2018-10-18T07:41:37.906Z,27.70
2018-10-18T07:44:10.833Z,28.15
2018-10-18T07:46:45.994Z,25.88
2018-10-18T07:49:17.608Z,27.02
2018-10-18T07:51:50.650Z,31.82
2018-10-18T07:54:22.215Z,28.83
2018-10-18T07:56:55.789Z,31.35
2018-10-18T07:59:29.099Z,31.52
2018-10-18T08:02:01.805Z,30.45
2018-10-18T08:04:34.626Z,29.55
2018-10-18T08:07:14.542Z,33.70
2018-10-18T08:09:47.047Z,49.27
2018-10-18T08:12:18.559Z,35.80
2018-10-18T08:14:51.972Z,33.67
2018-10-18T08:17:25.051Z,34.90
2018-10-18T08:19:58.883Z,32.42
2018-10-18T08:22:32.362Z,36.77
2018-10-18T08:25:05.075Z,33.60
2018-10-18T08:27:39.327Z,32.10
2018-10-18T08:30:14.611Z,32.15
2018-10-18T08:32:47.469Z,29.80
2018-10-18T08:35:21.444Z,31.53
2018-10-18T08:37:55.213Z,32.43
2018-10-18T08:40:29.098Z,32.20
2018-10-18T08:43:02.991Z,33.17
2018-10-18T08:45:33.711Z,32.80
2018-10-18T08:48:06.248Z,33.10
2018-10-18T08:50:37.647Z,36.50
2018-10-18T08:53:09.039Z,33.20
2018-10-18T08:55:41.882Z,35.17
2018-10-18T08:58:13.378Z,35.23
2018-10-18T09:00:45.198Z,34.20
2018-10-18T09:03:19.987Z,34.43
2018-10-18T09:05:52.275Z,36.83
2018-10-18T09:08:24.840Z,34.20
2018-10-18T09:10:56.005Z,34.80
2018-10-18T09:13:30.052Z,35.27
2018-10-18T09:16:01.471Z,34.57
2018-10-18T09:18:32.663Z,34.77
2018-10-18T09:21:03.916Z,34.33
2018-10-18T09:23:38.201Z,35.10
2018-10-18T09:26:10.830Z,34.90
2018-10-18T09:28:44.011Z,33.03
2018-10-18T09:31:15.997Z,38.90
2018-10-18T09:33:48.208Z,33.57
2018-10-18T09:36:19.531Z,31.93
2018-10-18T09:38:52.050Z,32.73
2018-10-18T09:41:23.692Z,32.03
2018-10-18T09:43:59.789Z,29.97
2018-10-18T09:46:31.839Z,32.47
2018-10-18T09:49:05.175Z,29.17
2018-10-18T09:51:36.087Z,31.50
2018-10-18T09:54:07.412Z,30.33
2018-10-18T09:56:38.471Z,29.80
2018-10-18T09:59:10.969Z,29.47
2018-10-18T10:01:47.340Z,31.37
2018-10-18T10:04:18.760Z,29.10
2018-10-18T10:06:51.123Z,29.70
2018-10-18T10:09:22.204Z,26.23
2018-10-18T10:11:54.765Z,27.57
2018-10-18T10:14:26.032Z,27.90
2018-10-18T10:16:58.065Z,27.00
2018-10-18T10:19:30.007Z,28.60
2018-10-18T10:22:02.850Z,27.27
2018-10-18T10:24:33.983Z,25.17
2018-10-18T10:27:06.113Z,28.07
2018-10-18T10:29:39.046Z,26.20
2018-10-18T10:32:10.904Z,26.27
2018-10-18T10:34:42.649Z,26.70
2018-10-18T10:37:14.545Z,27.60
2018-10-18T10:39:45.790Z,24.03
2018-10-18T10:42:17.371Z,23.47
2018-10-18T10:44:48.018Z,24.80
2018-10-18T10:47:20.245Z,25.73
2018-10-18T10:49:51.743Z,25.40
2018-10-18T10:52:23.349Z,26.20
2018-10-18T10:54:56.589Z,24.40
2018-10-18T10:57:26.942Z,23.90
2018-10-18T10:59:58.197Z,23.00
2018-10-18T11:02:28.578Z,22.07
2018-10-18T11:04:59.252Z,23.77
2018-10-18T11:07:30.399Z,21.60
2018-10-18T11:10:00.931Z,21.57
2018-10-18T11:12:32.123Z,20.77
2018-10-18T11:15:02.776Z,22.90
2018-10-18T11:17:35.054Z,22.70
2018-10-18T11:20:06.230Z,22.47
2018-10-18T11:22:36.876Z,22.10
2018-10-18T11:25:07.756Z,23.90
2018-10-18T11:27:38.256Z,20.10
2018-10-18T11:30:09.749Z,20.70
2018-10-18T11:32:40.019Z,19.97
2018-10-18T11:35:10.508Z,22.20
2018-10-18T11:37:42.376Z,21.80
2018-10-18T11:40:35.778Z,21.87
2018-10-18T11:43:08.882Z,22.07
2018-10-18T11:45:41.679Z,19.57
2018-10-18T11:48:14.794Z,19.03
2018-10-18T11:50:47.605Z,18.80
2018-10-18T11:53:19.758Z,20.57
2018-10-18T11:55:51.348Z,18.70
2018-10-18T11:58:23.867Z,21.33
2018-10-18T12:00:57.059Z,17.60
2018-10-18T12:03:29.312Z,17.67
2018-10-18T12:06:02.638Z,18.80
2018-10-18T12:08:35.098Z,19.13
2018-10-18T12:11:06.936Z,19.33
2018-10-18T12:13:39.283Z,19.40
2018-10-18T12:16:11.929Z,19.33
2018-10-18T12:18:43.892Z,18.00
2018-10-18T12:21:15.371Z,19.90
2018-10-18T12:23:48.962Z,18.97
2018-10-18T12:26:19.870Z,18.73
2018-10-18T12:28:52.231Z,17.87
2018-10-18T12:31:25.969Z,19.20
2018-10-18T12:33:58.750Z,19.30
2018-10-18T12:36:31.036Z,17.30
2018-10-18T12:39:02.370Z,18.50
2018-10-18T12:41:35.290Z,17.10
2018-10-18T12:44:08.801Z,20.83
2018-10-18T12:46:40.765Z,18.60
2018-10-18T12:49:12.769Z,16.87
2018-10-18T12:51:44.858Z,15.83
2018-10-18T12:54:17.901Z,16.20
2018-10-18T12:56:50.589Z,15.60
2018-10-18T12:59:22.962Z,16.00
2018-10-18T13:01:55.580Z,15.50
2018-10-18T13:04:29.026Z,16.33
2018-10-18T13:07:02.414Z,16.53
2018-10-18T13:09:35.164Z,17.00
2018-10-18T13:12:07.555Z,16.77
2018-10-18T13:14:39.960Z,15.57
2018-10-18T13:17:11.728Z,15.20
2018-10-18T13:19:44.407Z,15.60
2018-10-18T13:22:16.900Z,15.20
2018-10-18T13:24:49.234Z,13.30
2018-10-18T13:27:22.094Z,14.07
2018-10-18T13:29:54.093Z,14.60
2018-10-18T13:32:26.374Z,14.27
2018-10-18T13:34:58.911Z,14.10
2018-10-18T13:37:31.799Z,14.70
2018-10-18T13:40:03.098Z,13.80
2018-10-18T13:42:35.282Z,14.17
2018-10-18T13:45:09.559Z,15.20
2018-10-18T13:47:41.319Z,13.97
2018-10-18T13:50:13.162Z,13.40
2018-10-18T13:52:44.254Z,12.43
2018-10-18T13:55:15.729Z,14.13
2018-10-18T13:57:47.981Z,13.13
2018-10-18T14:00:27.263Z,13.37
2018-10-18T14:03:00.779Z,14.27
2018-10-18T14:05:34.056Z,13.80
2018-10-18T14:08:07.112Z,13.63
2018-10-18T14:10:39.348Z,11.07
2018-10-18T14:13:11.628Z,13.80
2018-10-18T14:15:43.487Z,13.50
2018-10-18T14:18:14.341Z,13.83
2018-10-18T14:20:49.537Z,12.53
2018-10-18T14:23:20.542Z,12.07
2018-10-18T14:25:52.958Z,12.83
2018-10-18T14:28:25.092Z,12.23
2018-10-18T14:30:57.819Z,12.10
2018-10-18T14:33:29.060Z,11.00
2018-10-18T14:36:01.556Z,10.33
2018-10-18T14:38:33.526Z,13.80
2018-10-18T14:41:04.340Z,15.33
2018-10-18T14:43:36.333Z,10.37
2018-10-18T14:46:07.150Z,11.47
2018-10-18T14:48:39.467Z,10.10
2018-10-18T14:51:10.548Z,10.30
2018-10-18T14:53:41.385Z,9.60
2018-10-18T14:56:12.201Z,9.07
2018-10-18T14:58:43.680Z,10.27
2018-10-18T15:01:15.153Z,11.40
2018-10-18T15:03:45.902Z,10.50
2018-10-18T15:06:18.631Z,9.43
2018-10-18T15:08:50.045Z,11.27
2018-10-18T15:11:22.028Z,10.93
2018-10-18T15:13:53.513Z,10.77
2018-10-18T15:16:24.364Z,11.60
2018-10-18T15:18:55.638Z,10.90
2018-10-18T15:21:27.409Z,11.63
2018-10-18T15:23:58.241Z,11.70
2018-10-18T15:26:30.271Z,12.50
2018-10-18T15:29:01.439Z,11.33
2018-10-18T15:31:36.937Z,12.23
2018-10-18T15:34:09.510Z,10.77
2018-10-18T15:36:39.751Z,13.63
2018-10-18T15:39:15.097Z,12.90
2018-10-18T15:41:45.770Z,12.20
2018-10-18T15:44:16.524Z,12.30
2018-10-18T15:46:49.914Z,13.47
2018-10-18T15:49:21.714Z,13.40
2018-10-18T15:51:54.648Z,12.73
2018-10-18T15:54:26.985Z,11.73
2018-10-18T15:57:15.556Z,12.10
2018-10-18T15:59:48.681Z,12.03
2018-10-18T16:02:26.794Z,11.27
2018-10-18T16:05:00.748Z,11.37
2018-10-18T16:07:34.590Z,12.80
2018-10-18T16:10:07.457Z,12.10
2018-10-18T16:12:42.243Z,13.10
2018-10-18T16:15:14.336Z,12.63
2018-10-18T16:17:47.838Z,11.80
2018-10-18T16:20:20.894Z,12.77
2018-10-18T16:22:54.606Z,13.43
2018-10-18T16:25:27.394Z,14.10
2018-10-18T16:28:01.948Z,13.37
2018-10-18T16:30:36.035Z,13.40
2018-10-18T16:33:10.614Z,15.17
2018-10-18T16:35:43.624Z,13.60
2018-10-18T16:38:16.556Z,28.90
2018-10-18T16:40:50.476Z,20.70
2018-10-18T16:43:23.717Z,16.70
2018-10-18T16:45:56.883Z,16.07
2018-10-18T16:48:30.612Z,14.60
2018-10-18T16:51:03.371Z,15.20
2018-10-18T16:53:37.489Z,15.63
2018-10-18T16:56:20.191Z,14.13
2018-10-18T16:58:54.613Z,16.00
2018-10-18T17:01:27.816Z,16.07
2018-10-18T17:04:00.959Z,15.20
2018-10-18T17:06:33.934Z,18.27
2018-10-18T17:09:07.487Z,19.57
2018-10-18T17:11:41.388Z,18.73
2018-10-18T17:14:14.259Z,17.27
2018-10-18T17:16:48.337Z,17.07
2018-10-18T17:19:21.402Z,17.17
2018-10-18T17:21:55.557Z,16.97
2018-10-18T17:24:29.453Z,15.57
2018-10-18T17:27:02.539Z,17.60
2018-10-18T17:29:37.052Z,18.90
2018-10-18T17:32:12.079Z,18.53
2018-10-18T17:34:45.447Z,17.60
2018-10-18T17:37:18.784Z,18.43
2018-10-18T17:39:52.088Z,17.07
2018-10-18T17:42:25.026Z,18.37
2018-10-18T17:44:58.374Z,19.97
2018-10-18T17:47:33.573Z,19.10
2018-10-18T17:50:07.091Z,19.50
2018-10-18T17:52:41.435Z,19.10
2018-10-18T17:55:14.385Z,18.23
2018-10-18T17:57:46.911Z,18.70
2018-10-18T18:00:19.771Z,20.53
2018-10-18T18:02:53.200Z,20.40
2018-10-18T18:05:27.198Z,19.30
2018-10-18T18:08:00.156Z,20.00
2018-10-18T18:10:33.655Z,18.70
2018-10-18T18:13:07.441Z,20.20
2018-10-18T18:15:41.715Z,20.23
2018-10-18T18:18:17.678Z,18.60
2018-10-18T18:20:51.993Z,17.17
2018-10-18T18:23:25.409Z,18.87
2018-10-18T18:25:58.921Z,19.65
2018-10-18T18:28:32.937Z,17.90
2018-10-18T18:31:07.147Z,18.98
2018-10-18T18:33:40.203Z,18.33
2018-10-18T18:36:13.291Z,19.07
2018-10-18T18:38:45.806Z,21.15
2018-10-18T18:41:20.990Z,19.67
2018-10-18T18:43:54.027Z,20.62
2018-10-18T18:46:28.197Z,20.50
2018-10-18T18:49:01.387Z,24.20
2018-10-18T18:51:34.513Z,22.37
2018-10-18T18:54:08.487Z,20.97
2018-10-18T18:56:51.393Z,23.00
2018-10-18T18:59:24.802Z,23.65
2018-10-18T19:01:57.820Z,24.95
2018-10-18T19:04:30.843Z,25.85
2018-10-18T19:07:03.405Z,26.23
2018-10-18T19:09:36.443Z,26.95
2018-10-18T19:12:09.173Z,26.12
2018-10-18T19:14:41.610Z,25.72
2018-10-18T19:17:14.282Z,30.45
2018-10-18T19:19:46.750Z,29.10
2018-10-18T19:22:21.597Z,30.85
2018-10-18T19:24:54.318Z,31.57
2018-10-18T19:27:26.713Z,31.70
2018-10-18T19:29:59.213Z,32.08
2018-10-18T19:32:32.251Z,36.85
2018-10-18T19:35:05.879Z,31.42
2018-10-18T19:37:38.814Z,31.77
2018-10-18T19:40:13.135Z,34.73
2018-10-18T19:42:45.014Z,30.68
2018-10-18T19:45:17.439Z,35.78
2018-10-18T19:47:49.833Z,33.23
2018-10-18T19:50:22.289Z,35.50
2018-10-18T19:52:55.010Z,35.75
2018-10-18T19:55:27.749Z,35.80
2018-10-18T19:58:00.440Z,34.38
2018-10-18T20:00:35.251Z,34.90
2018-10-18T20:03:08.458Z,33.78
2018-10-18T20:05:41.556Z,35.73
2018-10-18T20:08:14.689Z,34.13
2018-10-18T20:10:48.749Z,36.30
2018-10-18T20:13:22.803Z,37.95
2018-10-18T20:15:55.964Z,37.70
2018-10-18T20:18:29.455Z,34.27
2018-10-18T20:21:02.555Z,37.25
2018-10-18T20:23:35.464Z,37.73
2018-10-18T20:26:08.833Z,37.98
2018-10-18T20:28:41.821Z,38.30
2018-10-18T20:31:15.770Z,38.20
2018-10-18T20:33:48.904Z,40.43
2018-10-18T20:36:22.030Z,39.33
2018-10-18T20:38:56.129Z,39.42
2018-10-18T20:41:31.858Z,39.65
2018-10-18T20:44:05.068Z,40.92
2018-10-18T20:46:37.891Z,43.15
2018-10-18T20:49:11.559Z,37.83
2018-10-18T20:51:45.405Z,38.75
2018-10-18T20:54:18.428Z,39.92
2018-10-18T20:56:51.279Z,43.30
2018-10-18T20:59:24.293Z,40.85
2018-10-18T21:01:58.660Z,41.37
2018-10-18T21:04:31.966Z,39.53
2018-10-18T21:07:08.038Z,42.55
2018-10-18T21:09:42.834Z,42.40
2018-10-18T21:12:14.352Z,43.35
2018-10-18T21:14:46.704Z,41.73
2018-10-18T21:17:19.379Z,41.73
2018-10-18T21:19:51.912Z,41.88
2018-10-18T21:22:32.670Z,43.63
2018-10-18T21:25:06.623Z,40.50
2018-10-18T21:27:38.991Z,41.33
2018-10-18T21:30:10.665Z,40.75
2018-10-18T21:32:43.631Z,44.53
2018-10-18T21:35:16.913Z,41.68
2018-10-18T21:40:26.516Z,42.40
2018-10-18T21:42:59.213Z,45.20
2018-10-18T21:45:33.549Z,43.20
2018-10-18T21:48:06.470Z,44.90
2018-10-18T21:50:40.084Z,40.98
2018-10-18T21:53:13.198Z,43.08
2018-10-18T21:55:47.170Z,43.10
2018-10-18T21:58:19.733Z,45.80
2018-10-18T22:00:53.904Z,41.90
2018-10-18T22:03:27.458Z,41.55
2018-10-18T22:06:01.470Z,42.10
2018-10-18T22:08:35.269Z,44.77
2018-10-18T22:11:09.348Z,42.40
2018-10-18T22:13:42.253Z,44.45
2018-10-18T22:16:15.291Z,44.15
2018-10-18T22:18:48.373Z,43.35
2018-10-18T22:21:21.434Z,44.10
2018-10-18T22:23:54.736Z,46.85
2018-10-18T22:26:28.103Z,46.68
2018-10-18T22:29:01.154Z,45.30
2018-10-18T22:31:34.526Z,46.63
2018-10-18T22:34:10.013Z,43.42
2018-10-18T22:36:45.089Z,45.63
2018-10-18T22:39:18.741Z,45.48
2018-10-18T22:41:52.490Z,41.83
2018-10-18T22:44:24.062Z,43.35
2018-10-18T22:46:56.408Z,43.38
2018-10-18T22:49:28.563Z,42.45
2018-10-18T22:52:01.066Z,43.52
2018-10-18T22:54:33.807Z,42.95
2018-10-18T22:57:04.318Z,44.85
2018-10-18T22:59:38.031Z,45.90
2018-10-18T23:02:10.950Z,43.78
2018-10-18T23:04:44.386Z,45.83
2018-10-18T23:07:17.471Z,48.35
2018-10-18T23:09:50.605Z,47.85
2018-10-18T23:12:23.480Z,45.25
2018-10-18T23:14:57.470Z,46.00
2018-10-18T23:17:30.141Z,43.95
2018-10-18T23:20:04.061Z,44.27
2018-10-18T23:22:37.857Z,48.17
2018-10-18T23:25:10.899Z,46.05
2018-10-18T23:27:44.040Z,46.48
2018-10-18T23:30:17.819Z,49.25
2018-10-18T23:32:51.077Z,48.85
2018-10-18T23:35:23.972Z,49.75
2018-10-18T23:38:00.309Z,45.23
2018-10-18T23:40:33.903Z,46.50
2018-10-18T23:43:07.719Z,47.45
2018-10-18T23:45:40.831Z,46.75
2018-10-18T23:48:15.013Z,46.28
2018-10-18T23:50:48.064Z,47.38
2018-10-18T23:53:20.921Z,45.78
2018-10-18T23:55:54.057Z,45.92
2018-10-18T23:58:28.463Z,48.05
